SYK weather

Stykkishólmur Airport
Stykkishólmur, Western Region, Iceland

Public forecast

Using degrees Celsius for public forecast. Weather courtesy of forecast.io.

Closest aviation weather report (METAR) to Stykkishólmur Airport

Closest report is Bildudalur Airport, 39.8 nm (73.6 km) NNW. Retrieved 2019/10/15 08:50 UTC (1 hour ago):

BIBD 150850Z 05012G23KT 9999 SCT055 10/02 Q0996

Closest aviation forecast (TAF) to Stykkishólmur Airport

Closest forecast is Reykjavik Airport, 59.9 nm (110.9 km) SSE. Retrieved 2019/10/15 09:48 UTC (3 minutes ago):

TAF BIRK 150741Z 1509/1609 09017KT 9999 -RA BKN023 OVC030 TX11/1512Z TN08/1603Z BECMG 1512/1514 10022G32KT BECMG 1601/1603 09017KT